Time;durP1;ratioP1;P1;durP2;ratioP2;P2;SDS_P1;SDS_P2;PMS_P1;PMS_P2;Temp;Humidity;BMP_temperature;BMP_pressure;BME280_temperature;BME280_humidity;BME280_pressure;Samples;Min_cycle;Max_cycle;Signal;HPM_P1;HPM_P2
2021/03/01 00:00:14;;;;;;;42.70;13.60;;;;;;;2.58;96.93;103197.38;5135968;27;20476;-49
2021/03/01 00:02:41;;;;;;;66.97;17.47;;;;;;;2.67;97.12;103191.69;5134535;28;20456;-49
2021/03/01 00:05:10;;;;;;;40.33;13.10;;;;;;;2.76;96.98;103194.38;5135468;28;20920;-49
2021/03/01 00:07:37;;;;;;;67.17;14.70;;;;;;;2.62;96.86;103184.25;5134993;28;20454;-48
2021/03/01 00:10:05;;;;;;;39.60;15.40;;;;;;;2.73;96.86;103188.94;5135800;28;20450;-48
2021/03/01 00:12:31;;;;;;;59.03;15.23;;;;;;;2.81;96.82;103189.78;5135297;28;20470;-52
2021/03/01 00:14:59;;;;;;;38.20;14.73;;;;;;;2.75;96.78;103184.91;5135411;28;20450;-49
2021/03/01 00:17:26;;;;;;;41.70;15.17;;;;;;;2.61;96.77;103190.97;5135761;28;20508;-48
2021/03/01 00:19:53;;;;;;;68.43;17.60;;;;;;;3.01;97.59;103189.47;5135587;28;20458;-54
2021/03/01 00:22:20;;;;;;;42.23;13.70;;;;;;;2.89;97.10;103193.19;5135855;28;20456;-50
2021/03/01 00:24:46;;;;;;;43.03;14.03;;;;;;;2.69;96.45;103181.66;5134325;28;20479;-49
2021/03/01 00:27:13;;;;;;;30.00;12.83;;;;;;;2.70;96.79;103186.03;5135337;28;20925;-49
2021/03/01 00:29:40;;;;;;;39.73;14.53;;;;;;;2.77;96.97;103183.41;5134969;28;20446;-49
2021/03/01 00:32:07;;;;;;;83.17;20.77;;;;;;;3.00;97.36;103184.19;5135485;28;20521;-49
2021/03/01 00:34:34;;;;;;;46.10;14.67;;;;;;;2.82;96.56;103182.31;5134094;28;20521;-51
2021/03/01 00:37:01;;;;;;;69.57;16.20;;;;;;;2.92;96.90;103183.34;5135726;28;20470;-49
2021/03/01 00:39:27;;;;;;;77.27;18.23;;;;;;;2.92;96.90;103178.25;5134083;27;20896;-50
2021/03/01 00:41:54;;;;;;;52.23;14.97;;;;;;;2.80;96.71;103173.59;5139663;27;20460;-49
2021/03/01 00:44:21;;;;;;;71.63;18.87;;;;;;;2.87;96.91;103180.25;5138471;27;20446;-48
2021/03/01 00:46:47;;;;;;;51.07;17.00;;;;;;;2.95;97.06;103179.50;5139263;27;20430;-50
2021/03/01 00:49:15;;;;;;;40.50;14.50;;;;;;;2.79;96.49;103179.44;5138064;27;21212;-50
2021/03/01 00:51:42;;;;;;;48.03;15.27;;;;;;;2.73;96.77;103168.53;5139576;27;20433;-51
2021/03/01 00:54:08;;;;;;;52.63;15.10;;;;;;;2.72;96.73;103163.25;5137974;27;20447;-49
2021/03/01 00:56:35;;;;;;;35.33;13.30;;;;;;;2.74;96.90;103162.69;5139298;27;20457;-50
2021/03/01 00:59:02;;;;;;;52.70;14.80;;;;;;;2.79;96.78;103166.69;5138351;27;20895;-50
2021/03/01 01:01:29;;;;;;;51.40;18.10;;;;;;;2.87;96.79;103164.06;5139517;27;20839;-48
2021/03/01 01:03:56;;;;;;;51.63;15.00;;;;;;;2.86;96.67;103162.25;5138160;27;20801;-49
2021/03/01 01:06:23;;;;;;;51.63;13.70;;;;;;;2.95;96.86;103159.09;5139096;27;20438;-50
2021/03/01 01:08:50;;;;;;;56.00;15.97;;;;;;;2.82;96.24;103159.34;5137144;27;20446;-52
2021/03/01 01:11:16;;;;;;;39.03;13.87;;;;;;;2.75;96.42;103159.41;5138983;27;20979;-49
2021/03/01 01:13:43;;;;;;;35.43;12.70;;;;;;;2.96;96.69;103162.53;5138029;27;20449;-49
2021/03/01 01:16:10;;;;;;;42.73;15.80;;;;;;;2.97;96.79;103156.69;5138865;27;20437;-49
2021/03/01 01:18:36;;;;;;;44.33;15.27;;;;;;;2.79;96.26;103151.38;5137784;27;20449;-48
2021/03/01 01:21:04;;;;;;;56.10;14.47;;;;;;;2.73;96.42;103160.88;5138966;27;20575;-48
2021/03/01 01:23:32;;;;;;;41.20;14.47;;;;;;;2.76;96.80;103152.69;5137918;27;20785;-52
2021/03/01 01:25:59;;;;;;;38.00;14.13;;;;;;;2.77;96.54;103157.03;5138464;27;20459;-54
2021/03/01 01:28:25;;;;;;;60.47;15.30;;;;;;;2.83;96.65;103152.63;5138199;27;20757;-54
2021/03/01 01:30:52;;;;;;;53.57;14.13;;;;;;;2.76;96.70;103145.03;5138681;27;20514;-49
2021/03/01 01:33:18;;;;;;;43.10;12.83;;;;;;;2.61;96.79;103149.31;5137856;27;20455;-50
2021/03/01 01:35:45;;;;;;;50.37;14.83;;;;;;;2.72;97.25;103143.75;5138177;27;20435;-50
2021/03/01 01:38:12;;;;;;;41.57;13.50;;;;;;;2.68;96.86;103139.06;5137567;27;20545;-53
2021/03/01 01:40:40;;;;;;;40.90;12.27;;;;;;;2.77;96.94;103137.53;5138176;27;20480;-48
2021/03/01 01:43:06;;;;;;;36.30;12.63;;;;;;;2.76;96.66;103135.72;5137819;27;20480;-48
2021/03/01 01:45:33;;;;;;;76.77;15.40;;;;;;;2.69;96.46;103134.16;5138391;27;20459;-48
2021/03/01 01:47:59;;;;;;;44.77;15.80;;;;;;;2.80;96.96;103125.13;5137289;27;20475;-51
2021/03/01 01:50:28;;;;;;;42.10;13.30;;;;;;;2.87;96.83;103129.25;5138187;27;20452;-50
2021/03/01 01:52:56;;;;;;;40.63;13.77;;;;;;;2.68;96.42;103126.31;5136960;27;20905;-49
2021/03/01 01:55:23;;;;;;;38.13;13.60;;;;;;;2.65;96.47;103124.31;5137872;27;20877;-48
2021/03/01 01:57:51;;;;;;;38.93;13.03;;;;;;;2.70;96.99;103124.84;5137269;27;20476;-49
2021/03/01 02:00:29;;;;;;;35.20;12.23;;;;;;;2.72;96.57;103130.13;5138560;27;20486;-51
2021/03/01 02:03:00;;;;;;;31.57;12.87;;;;;;;2.69;96.66;103125.56;5136773;27;20450;-49
2021/03/01 02:05:28;;;;;;;39.87;14.90;;;;;;;2.68;97.19;103133.97;5137813;27;20480;-49
2021/03/01 02:07:57;;;;;;;41.93;12.80;;;;;;;2.89;96.83;103132.91;5137196;27;20484;-50
2021/03/01 02:10:30;;;;;;;34.07;12.10;;;;;;;2.76;96.36;103135.72;5138079;27;20430;-49
2021/03/01 02:13:03;;;;;;;31.50;11.40;;;;;;;2.65;96.34;103143.81;5137095;27;20450;-50
2021/03/01 02:15:38;;;;;;;39.53;16.17;;;;;;;3.01;97.40;103147.72;5137684;27;20452;-50
2021/03/01 02:18:06;;;;;;;30.00;11.47;;;;;;;2.84;96.47;103144.22;5136694;27;20792;-49
2021/03/01 02:20:33;;;;;;;34.87;12.30;;;;;;;2.74;96.22;103139.75;5137791;27;20462;-50
2021/03/01 02:23:00;;;;;;;40.23;14.50;;;;;;;2.78;96.66;103139.34;5136425;27;20446;-49
2021/03/01 02:25:28;;;;;;;39.93;12.40;;;;;;;2.72;96.16;103133.56;5137320;27;20494;-49
2021/03/01 02:28:00;;;;;;;39.73;15.70;;;;;;;2.88;96.86;103140.38;5136895;27;20798;-49
2021/03/01 02:30:30;;;;;;;35.30;11.57;;;;;;;2.85;96.26;103128.19;5137378;27;20427;-48
2021/03/01 02:33:01;;;;;;;31.37;12.10;;;;;;;2.81;96.11;103134.59;5136914;27;20468;-51
2021/03/01 02:35:30;;;;;;;32.40;12.30;;;;;;;2.83;96.26;103122.91;5136798;27;20456;-48
2021/03/01 02:37:57;;;;;;;37.00;12.17;;;;;;;2.72;95.98;103127.56;5135732;27;20768;-51
2021/03/01 02:40:25;;;;;;;31.40;11.60;;;;;;;2.94;95.82;103129.22;5137366;27;20480;-49
2021/03/01 02:42:53;;;;;;;30.50;13.77;;;;;;;2.95;95.66;103127.56;5136415;27;20461;-50
2021/03/01 02:45:21;;;;;;;26.17;11.63;;;;;;;2.79;95.65;103132.59;5136938;27;20750;-50
2021/03/01 02:47:47;;;;;;;28.40;11.30;;;;;;;2.96;95.84;103129.38;5135821;27;20772;-49
2021/03/01 02:50:15;;;;;;;35.53;11.87;;;;;;;2.76;95.45;103128.06;5137386;27;20522;-52
2021/03/01 02:52:42;;;;;;;26.80;10.70;;;;;;;2.78;95.34;103128.25;5136207;27;20558;-50
2021/03/01 02:55:11;;;;;;;33.20;10.70;;;;;;;2.71;95.61;103134.28;5136697;27;20460;-50
2021/03/01 02:57:39;;;;;;;33.50;11.37;;;;;;;2.83;95.66;103133.09;5142278;27;20930;-49
2021/03/01 03:00:08;;;;;;;31.40;11.63;;;;;;;2.97;96.14;103141.38;5146992;27;20427;-49
2021/03/01 03:02:35;;;;;;;28.40;10.33;;;;;;;2.90;95.37;103139.81;5135928;27;20430;-51
2021/03/01 03:05:03;;;;;;;29.73;10.93;;;;;;;2.70;95.33;103141.06;5136759;27;20476;-51
2021/03/01 03:07:30;;;;;;;27.60;9.57;;;;;;;2.81;95.68;103143.88;5136676;27;20474;-48
2021/03/01 03:09:56;;;;;;;25.33;9.80;;;;;;;2.83;95.86;103143.31;5137347;27;20473;-48
2021/03/01 03:12:24;;;;;;;32.00;10.30;;;;;;;2.90;95.67;103149.09;5137393;27;20426;-49
2021/03/01 03:14:53;;;;;;;36.40;11.70;;;;;;;3.05;95.57;103150.81;5136461;27;20456;-51
2021/03/01 03:17:21;;;;;;;30.20;11.80;;;;;;;2.90;95.58;103144.91;5136935;27;20900;-50
2021/03/01 03:19:48;;;;;;;33.23;13.50;;;;;;;2.91;95.30;103148.34;5136103;27;20786;-49
2021/03/01 03:22:15;;;;;;;28.93;9.43;;;;;;;2.86;95.30;103136.75;5137164;27;20758;-48
2021/03/01 03:24:41;;;;;;;24.07;8.77;;;;;;;2.88;95.17;103145.47;5135800;27;20450;-49
2021/03/01 03:27:08;;;;;;;26.33;11.20;;;;;;;2.87;95.80;103138.56;5136435;27;20456;-49
2021/03/01 03:29:35;;;;;;;23.50;9.70;;;;;;;2.72;95.14;103153.94;5136302;27;20575;-48
2021/03/01 03:32:02;;;;;;;25.60;9.63;;;;;;;2.95;95.37;103142.88;5136852;27;20740;-48
2021/03/01 03:34:29;;;;;;;26.50;10.73;;;;;;;2.91;94.74;103135.59;5135680;27;20447;-48
2021/03/01 03:37:03;;;;;;;23.70;9.47;;;;;;;2.77;95.53;103137.53;5136631;27;20513;-48
2021/03/01 03:39:31;;;;;;;29.77;10.40;;;;;;;2.68;95.38;103139.06;5136006;27;20468;-48
2021/03/01 03:41:58;;;;;;;21.33;8.80;;;;;;;2.64;95.54;103140.38;5136660;27;20490;-49
2021/03/01 03:44:25;;;;;;;20.20;9.00;;;;;;;2.82;95.88;103138.94;5135530;27;20888;-50
2021/03/01 03:46:52;;;;;;;31.33;9.50;;;;;;;2.82;95.41;103143.16;5136478;27;20456;-52
2021/03/01 03:49:20;;;;;;;27.10;10.00;;;;;;;2.80;95.47;103143.00;5135724;27;20554;-49
2021/03/01 03:51:47;;;;;;;27.00;9.10;;;;;;;2.73;95.20;103140.50;5136614;27;20426;-49
2021/03/01 03:54:16;;;;;;;19.20;9.13;;;;;;;2.53;95.06;103140.78;5135411;27;20555;-49
2021/03/01 03:56:46;;;;;;;28.10;8.40;;;;;;;2.65;95.75;103143.81;5136527;27;20431;-51
2021/03/01 03:59:13;;;;;;;21.50;8.77;;;;;;;2.53;95.44;103141.72;5135525;27;20450;-49
2021/03/01 04:01:42;;;;;;;25.70;9.67;;;;;;;2.84;95.46;103142.56;5131369;27;20834;-54
2021/03/01 04:04:09;;;;;;;25.70;9.07;;;;;;;2.77;94.79;103152.81;5133718;28;20979;-53
2021/03/01 04:06:38;;;;;;;31.33;12.60;;;;;;;2.83;94.98;103144.97;5135859;28;20464;-51
2021/03/01 04:09:07;;;;;;;22.50;9.00;;;;;;;2.81;94.35;103144.78;5113663;28;20555;-50
2021/03/01 04:11:34;;;;;;;22.80;8.70;;;;;;;2.86;94.57;103141.88;5125869;28;20458;-52
2021/03/01 04:14:02;;;;;;;25.67;8.77;;;;;;;2.73;93.72;103135.38;5135502;27;20480;-49
2021/03/01 04:16:30;;;;;;;20.27;8.30;;;;;;;2.89;94.89;103142.19;5139953;27;20876;-51
2021/03/01 04:19:02;;;;;;;20.90;9.17;;;;;;;2.79;94.13;103143.72;5138438;27;20537;-50
2021/03/01 04:21:29;;;;;;;22.83;10.17;;;;;;;2.73;93.89;103150.69;5139844;27;20455;-49
2021/03/01 04:23:57;;;;;;;23.53;8.40;;;;;;;2.64;94.56;103149.63;5138112;27;20452;-53
2021/03/01 04:26:24;;;;;;;26.43;9.03;;;;;;;2.61;94.55;103150.19;5140082;27;20872;-49
2021/03/01 04:28:51;;;;;;;20.50;7.50;;;;;;;2.43;94.74;103157.56;5139364;27;20472;-51
2021/03/01 04:31:19;;;;;;;18.83;8.23;;;;;;;2.63;95.04;103147.84;5139652;27;20430;-50
2021/03/01 04:33:46;;;;;;;24.57;8.40;;;;;;;2.59;94.29;103150.75;5138532;27;20446;-48
2021/03/01 04:36:15;;;;;;;24.40;9.70;;;;;;;2.62;94.38;103154.56;5145679;27;20454;-50
2021/03/01 04:38:41;;;;;;;27.83;10.27;;;;;;;2.71;94.13;103152.13;5159146;27;20927;-50
2021/03/01 04:41:09;;;;;;;26.57;10.90;;;;;;;2.90;95.93;103155.13;5157260;27;20461;-49
2021/03/01 04:43:37;;;;;;;24.33;9.50;;;;;;;2.83;94.32;103158.63;5139090;27;20442;-50
2021/03/01 04:46:04;;;;;;;32.97;13.23;;;;;;;3.03;94.86;103165.03;5139896;27;20845;-53
2021/03/01 04:48:31;;;;;;;27.33;9.37;;;;;;;2.64;94.39;103164.94;5138528;27;20495;-49
2021/03/01 04:50:58;;;;;;;25.40;9.93;;;;;;;2.66;95.05;103163.50;5139942;27;20466;-49
2021/03/01 04:53:25;;;;;;;36.00;13.80;;;;;;;3.04;95.52;103168.50;5138393;27;20488;-49
2021/03/01 04:55:52;;;;;;;33.50;9.90;;;;;;;3.01;94.56;103169.06;5139591;27;20477;-49
2021/03/01 04:58:20;;;;;;;35.17;10.50;;;;;;;2.81;94.22;103172.84;5154555;27;20456;-52
2021/03/01 05:00:47;;;;;;;29.63;8.40;;;;;;;2.78;94.04;103164.84;5160262;27;20457;-49
2021/03/01 05:03:14;;;;;;;30.57;9.40;;;;;;;2.91;93.95;103161.09;5148892;27;20482;-50
2021/03/01 05:05:42;;;;;;;32.10;9.40;;;;;;;2.56;93.87;103172.63;5138983;27;20467;-49
2021/03/01 05:08:12;;;;;;;28.70;9.47;;;;;;;2.65;94.93;103165.13;5137565;27;20450;-50
2021/03/01 05:10:39;;;;;;;22.80;8.73;;;;;;;2.47;94.27;103168.13;5139248;27;20735;-49
2021/03/01 05:13:07;;;;;;;17.37;8.07;;;;;;;2.53;94.58;103162.09;5145588;27;20525;-49
2021/03/01 05:15:34;;;;;;;20.53;9.10;;;;;;;2.80;94.66;103160.84;5146145;27;20771;-48
2021/03/01 05:18:01;;;;;;;27.13;9.43;;;;;;;2.59;94.13;103153.31;5137468;27;20451;-48
2021/03/01 05:20:28;;;;;;;24.13;7.90;;;;;;;2.51;94.04;103145.72;5139122;27;20439;-51
2021/03/01 05:22:55;;;;;;;18.80;8.23;;;;;;;2.31;94.18;103147.66;5155707;27;20448;-52
2021/03/01 05:25:21;;;;;;;20.67;8.00;;;;;;;2.51;94.80;103153.34;5159221;27;20455;-50
2021/03/01 05:27:48;;;;;;;16.97;6.63;;;;;;;2.31;94.35;103150.19;5158965;27;20474;-50
2021/03/01 05:30:15;;;;;;;18.87;8.30;;;;;;;2.40;95.34;103148.69;5159956;27;20430;-48
2021/03/01 05:32:43;;;;;;;16.03;7.10;;;;;;;2.50;94.62;103151.53;5158732;27;20429;-49
2021/03/01 05:35:11;;;;;;;16.87;7.20;;;;;;;2.42;94.33;103148.13;5159340;27;20888;-49
2021/03/01 05:37:37;;;;;;;17.57;8.33;;;;;;;2.54;94.05;103158.81;5158584;27;20452;-49
2021/03/01 05:40:05;;;;;;;16.33;7.10;;;;;;;2.58;94.22;103160.06;5159958;27;20486;-50
2021/03/01 05:42:34;;;;;;;26.87;10.50;;;;;;;2.59;94.61;103155.84;5159126;27;20449;-49
2021/03/01 05:45:03;;;;;;;21.57;9.07;;;;;;;2.47;94.13;103163.03;5159234;27;20556;-48
2021/03/01 05:47:30;;;;;;;31.13;10.30;;;;;;;2.52;95.03;103152.63;5158096;27;20450;-49
2021/03/01 05:49:59;;;;;;;24.73;8.80;;;;;;;2.38;94.13;103160.34;5159842;27;20460;-51
2021/03/01 05:52:28;;;;;;;18.83;8.10;;;;;;;2.25;94.71;103163.16;5158397;27;20546;-56
2021/03/01 05:54:55;;;;;;;23.57;8.57;;;;;;;2.14;94.29;103156.81;5159082;27;20930;-48
2021/03/01 05:57:23;;;;;;;28.03;9.70;;;;;;;2.12;94.80;103155.75;5159305;27;20476;-49
2021/03/01 05:59:50;;;;;;;23.90;8.90;;;;;;;2.33;95.49;103156.38;5158639;27;20437;-49
2021/03/01 06:02:17;;;;;;;20.50;8.73;;;;;;;2.17;94.46;103162.28;5155813;27;20484;-50
2021/03/01 06:04:44;;;;;;;15.47;7.40;;;;;;;2.09;94.30;103163.00;5136511;27;20748;-53
2021/03/01 06:07:11;;;;;;;14.60;7.17;;;;;;;2.08;94.11;103164.66;5137895;27;20458;-51
2021/03/01 06:09:39;;;;;;;22.87;9.60;;;;;;;2.32;95.11;103167.28;5136570;27;20480;-50
2021/03/01 06:12:06;;;;;;;18.03;8.30;;;;;;;2.21;94.34;103168.63;5138018;27;20501;-50
2021/03/01 06:14:34;;;;;;;16.03;7.30;;;;;;;2.15;94.09;103174.81;5136626;27;20453;-49
2021/03/01 06:17:15;;;;;;;33.50;9.70;;;;;;;2.19;94.36;103159.91;5147757;27;20463;-49
2021/03/01 06:19:50;;;;;;;23.37;8.80;;;;;;;2.06;94.57;103170.31;5156831;27;20555;-49
2021/03/01 06:22:19;;;;;;;27.07;9.10;;;;;;;2.00;94.60;103173.06;5158598;27;20535;-48
2021/03/01 06:25:04;;;;;;;18.47;7.97;;;;;;;2.10;94.33;103172.50;5156936;27;20486;-49
2021/03/01 06:27:31;;;;;;;22.63;8.90;;;;;;;2.16;94.55;103175.75;5158307;27;20471;-49
2021/03/01 06:30:08;;;;;;;21.20;8.17;;;;;;;2.01;94.17;103183.41;5145733;27;20625;-49
2021/03/01 06:32:35;;;;;;;28.47;10.83;;;;;;;2.07;94.79;103178.13;5136069;27;20433;-50
2021/03/01 06:35:04;;;;;;;22.00;9.37;;;;;;;1.91;94.63;103178.00;5141162;27;20458;-50
2021/03/01 06:37:31;;;;;;;21.67;9.23;;;;;;;2.00;94.70;103186.69;5136219;27;20479;-50
2021/03/01 06:39:58;;;;;;;29.33;11.60;;;;;;;1.95;94.40;103185.25;5137641;27;20476;-50
2021/03/01 06:42:27;;;;;;;33.13;12.80;;;;;;;2.38;95.31;103196.03;5151643;27;20485;-51
2021/03/01 06:45:14;;;;;;;41.23;16.67;;;;;;;2.25;93.93;103184.44;5154055;27;20969;-51
2021/03/01 06:47:51;;;;;;;26.27;10.17;;;;;;;2.00;93.31;103186.69;5150985;27;21004;-55
2021/03/01 06:50:32;;;;;;;24.83;10.47;;;;;;;2.28;93.49;103187.34;5152717;27;20703;-48
2021/03/01 06:53:15;;;;;;;23.97;8.93;;;;;;;2.01;92.69;103193.59;5153131;27;20450;-48
2021/03/01 06:55:56;;;;;;;25.53;9.53;;;;;;;1.91;92.75;103189.81;5151574;27;20467;-54
2021/03/01 06:58:25;;;;;;;23.90;10.43;;;;;;;1.81;93.57;103185.31;5151607;27;20539;-50
2021/03/01 07:01:04;;;;;;;21.83;7.77;;;;;;;1.74;93.48;103178.56;5154384;27;20734;-48
2021/03/01 07:03:31;;;;;;;20.73;8.90;;;;;;;1.59;93.40;103185.34;5150550;27;20466;-54
2021/03/01 07:05:59;;;;;;;22.87;8.17;;;;;;;1.65;93.16;103191.16;5153732;27;20811;-49
2021/03/01 07:08:38;;;;;;;19.77;8.30;;;;;;;1.69;92.40;103188.22;5151377;27;20483;-50
2021/03/01 07:11:20;;;;;;;25.20;9.13;;;;;;;1.72;92.35;103180.97;5151985;27;20459;-51
2021/03/01 07:13:51;;;;;;;29.13;12.37;;;;;;;1.76;92.71;103177.13;5141917;27;20772;-50
2021/03/01 07:16:18;;;;;;;17.83;7.87;;;;;;;1.71;92.55;103174.06;5136451;27;20808;-54
2021/03/01 07:18:44;;;;;;;39.00;15.00;;;;;;;1.72;92.97;103170.78;5135208;27;20448;-50
2021/03/01 07:21:12;;;;;;;29.63;13.30;;;;;;;1.78;92.83;103169.69;5136048;27;20537;-51
2021/03/01 07:23:41;;;;;;;25.93;9.80;;;;;;;1.84;92.90;103178.03;5135084;27;20455;-53
2021/03/01 07:26:09;;;;;;;39.60;15.00;;;;;;;1.84;93.13;103183.13;5136175;27;21181;-49
2021/03/01 07:28:41;;;;;;;34.17;12.40;;;;;;;1.96;92.96;103183.63;5135642;27;20478;-49
2021/03/01 07:31:10;;;;;;;24.03;8.10;;;;;;;1.94;92.84;103178.34;5138505;27;20456;-51
2021/03/01 07:33:37;;;;;;;30.50;12.07;;;;;;;1.99;92.89;103178.88;5152477;27;22165;-52
2021/03/01 07:36:07;;;;;;;24.87;10.20;;;;;;;1.93;92.49;103181.63;5153854;27;20442;-50
2021/03/01 07:38:35;;;;;;;25.40;10.00;;;;;;;1.78;93.78;103178.22;5151276;27;20461;-50
2021/03/01 07:41:03;;;;;;;27.73;10.57;;;;;;;1.91;93.52;103180.56;5153866;27;20570;-48
2021/03/01 07:43:31;;;;;;;19.73;8.93;;;;;;;1.99;93.42;103187.44;5152705;27;20485;-50
2021/03/01 07:45:58;;;;;;;29.40;9.70;;;;;;;1.83;93.51;103187.28;5153183;27;20551;-48
2021/03/01 07:48:34;;;;;;;24.40;8.97;;;;;;;1.77;93.92;103189.13;5151634;27;20558;-49
2021/03/01 07:51:01;;;;;;;30.57;9.93;;;;;;;1.80;93.40;103184.38;5147366;27;20459;-48
2021/03/01 07:53:51;;;;;;;21.70;8.93;;;;;;;1.83;93.30;103188.91;5137827;27;20951;-49
2021/03/01 07:56:49;;;;;;;20.80;8.93;;;;;;;1.86;93.29;103185.09;5139756;27;20469;-50
2021/03/01 07:59:31;;;;;;;29.60;9.43;;;;;;;1.82;92.69;103182.03;5149485;27;20482;-49
2021/03/01 08:02:15;;;;;;;21.27;8.60;;;;;;;1.80;92.99;103186.03;5151627;27;20599;-48
2021/03/01 08:04:43;;;;;;;24.40;8.90;;;;;;;1.91;93.11;103192.38;5150002;27;20475;-52
2021/03/01 08:07:10;;;;;;;19.57;9.17;;;;;;;1.81;92.98;103198.03;5153107;27;20436;-49
2021/03/01 08:09:44;;;;;;;23.87;10.40;;;;;;;1.86;92.66;103197.81;5152052;27;20787;-50
2021/03/01 08:12:14;;;;;;;26.33;9.07;;;;;;;1.84;92.46;103208.59;5155687;27;20444;-53
2021/03/01 08:14:58;;;;;;;23.07;8.20;;;;;;;1.86;92.68;103208.00;5120600;28;20911;-52
2021/03/01 08:17:35;;;;;;;22.77;8.47;;;;;;;1.98;92.57;103206.00;5135439;28;20580;-48
2021/03/01 08:20:27;;;;;;;19.83;8.03;;;;;;;1.90;92.20;103209.31;5135269;28;20487;-50
2021/03/01 08:23:19;;;;;;;30.13;10.90;;;;;;;2.33;92.60;103208.25;5134026;28;20500;-48
2021/03/01 08:26:07;;;;;;;16.97;7.07;;;;;;;2.39;89.94;103205.47;5135297;28;20435;-48
2021/03/01 08:28:48;;;;;;;18.77;7.93;;;;;;;2.29;89.43;103208.63;5123004;28;20464;-49
2021/03/01 08:31:19;;;;;;;18.70;8.13;;;;;;;2.32;89.76;103208.06;5140729;27;20426;-49
2021/03/01 08:33:46;;;;;;;22.30;7.10;;;;;;;2.06;90.55;103211.06;5154677;27;20507;-50
2021/03/01 08:36:26;;;;;;;21.30;8.43;;;;;;;2.14;90.42;103206.13;5153792;27;20433;-50
2021/03/01 08:38:55;;;;;;;17.20;7.90;;;;;;;2.24;90.51;103212.28;5125990;27;20826;-52
2021/03/01 08:41:40;;;;;;;19.83;7.97;;;;;;;2.11;90.31;103213.41;5128900;28;20454;-51
2021/03/01 08:44:19;;;;;;;18.23;7.30;;;;;;;2.12;90.83;103206.69;5119605;28;20959;-51
2021/03/01 08:46:46;;;;;;;18.50;7.67;;;;;;;2.13;90.19;103214.50;5128636;28;20431;-49
2021/03/01 08:49:22;;;;;;;24.83;8.00;;;;;;;2.12;89.82;103214.31;5124157;28;20530;-49
2021/03/01 08:51:54;;;;;;;24.70;9.70;;;;;;;2.25;89.94;103209.03;5123448;28;20460;-51
2021/03/01 08:54:29;;;;;;;15.30;6.77;;;;;;;2.07;90.18;103211.25;5118395;28;20968;-51
2021/03/01 08:57:05;;;;;;;22.60;8.80;;;;;;;2.10;90.27;103213.25;5126044;27;20439;-52
2021/03/01 08:59:34;;;;;;;21.87;8.30;;;;;;;2.15;90.09;103212.13;5132132;27;20439;-49
2021/03/01 09:02:01;;;;;;;20.50;8.50;;;;;;;2.25;89.94;103209.91;5135198;27;20523;-52
2021/03/01 09:04:27;;;;;;;21.20;8.27;;;;;;;2.39;90.39;103213.13;5130378;27;20458;-52
2021/03/01 09:07:05;;;;;;;24.37;9.43;;;;;;;2.38;89.74;103216.41;5127260;27;20885;-55
2021/03/01 09:09:45;;;;;;;23.10;9.83;;;;;;;2.27;90.17;103210.97;5129873;27;20454;-50
2021/03/01 09:12:17;;;;;;;24.40;9.40;;;;;;;2.38;89.96;103213.88;5126264;27;20452;-53
2021/03/01 09:14:47;;;;;;;20.20;8.40;;;;;;;2.29;89.67;103217.19;5135444;27;20476;-51
2021/03/01 09:17:14;;;;;;;24.80;10.20;;;;;;;2.38;89.19;103216.41;5123821;27;20477;-50
2021/03/01 09:19:42;;;;;;;24.20;9.70;;;;;;;2.23;89.78;103219.03;5121832;27;20462;-50
2021/03/01 09:22:09;;;;;;;29.97;11.47;;;;;;;2.47;90.51;103214.94;5129245;27;20538;-53
2021/03/01 09:24:37;;;;;;;24.67;9.00;;;;;;;2.41;89.16;103216.78;5118567;27;20538;-55
2021/03/01 09:27:04;;;;;;;21.00;8.90;;;;;;;2.42;89.11;103214.38;5136696;27;20890;-54
2021/03/01 09:29:35;;;;;;;26.77;9.73;;;;;;;2.51;89.05;103216.19;5136052;27;20452;-52
2021/03/01 09:32:04;;;;;;;36.93;13.80;;;;;;;2.82;89.31;103212.91;5123431;27;20503;-52
2021/03/01 09:34:31;;;;;;;22.80;9.40;;;;;;;2.43;89.03;103215.31;5134377;27;20455;-52
2021/03/01 09:37:11;;;;;;;26.47;10.30;;;;;;;2.58;88.59;103217.78;5129823;27;20436;-54
2021/03/01 09:39:38;;;;;;;23.23;10.20;;;;;;;2.42;88.72;103218.59;5106580;27;20860;-48
2021/03/01 09:42:06;;;;;;;21.33;8.80;;;;;;;2.52;88.94;103221.44;5124075;27;20527;-52
2021/03/01 09:44:35;;;;;;;24.87;10.83;;;;;;;2.51;88.61;103219.63;5126403;27;20489;-51
2021/03/01 09:47:06;;;;;;;25.20;10.30;;;;;;;2.48;88.76;103219.28;5136520;27;20467;-50
2021/03/01 09:49:35;;;;;;;22.20;10.20;;;;;;;2.50;88.62;103222.00;5111055;27;20481;-51
2021/03/01 09:52:03;;;;;;;25.00;11.20;;;;;;;2.62;89.67;103213.19;5127467;27;20439;-50
2021/03/01 09:54:31;;;;;;;23.53;10.00;;;;;;;2.77;89.06;103216.56;5118738;27;20460;-54
2021/03/01 09:57:04;;;;;;;28.53;10.97;;;;;;;2.77;88.76;103220.78;5127507;27;20503;-52
2021/03/01 09:59:32;;;;;;;32.30;14.33;;;;;;;2.91;89.56;103222.31;5121461;27;20529;-49
2021/03/01 10:02:11;;;;;;;23.93;9.70;;;;;;;2.94;88.29;103222.69;5128903;27;20766;-53
2021/03/01 10:04:38;;;;;;;25.20;11.60;;;;;;;3.00;88.56;103227.53;5120481;27;20476;-50
2021/03/01 10:07:27;;;;;;;23.70;9.80;;;;;;;3.01;87.36;103224.25;5131137;27;20464;-52
2021/03/01 10:09:55;;;;;;;26.80;9.30;;;;;;;2.97;86.82;103230.66;5134179;27;20468;-51
2021/03/01 10:12:23;;;;;;;26.70;10.10;;;;;;;2.97;87.81;103228.09;5139181;27;20457;-55
2021/03/01 10:14:56;;;;;;;27.77;10.67;;;;;;;2.84;87.10;103233.47;5139400;27;20776;-50
2021/03/01 10:17:28;;;;;;;31.83;10.63;;;;;;;2.77;87.85;103234.41;5127686;27;20772;-50
2021/03/01 10:20:04;;;;;;;18.20;7.87;;;;;;;2.80;86.19;103231.31;5141718;27;20478;-50
2021/03/01 10:22:30;;;;;;;16.93;6.37;;;;;;;2.52;86.47;103226.53;5135957;27;20454;-49
2021/03/01 10:24:57;;;;;;;24.63;10.23;;;;;;;2.92;86.75;103229.25;5139665;27;21051;-49
2021/03/01 10:27:35;;;;;;;21.37;9.00;;;;;;;3.18;84.93;103242.38;5137616;27;20484;-52
2021/03/01 10:30:04;;;;;;;20.23;8.10;;;;;;;3.16;85.09;103230.16;5137349;27;20502;-50
2021/03/01 10:32:32;;;;;;;22.67;9.33;;;;;;;3.29;84.46;103235.00;5136139;27;20799;-49
2021/03/01 10:34:58;;;;;;;21.83;8.33;;;;;;;3.27;84.44;103241.59;5135957;27;20478;-50
2021/03/01 10:37:26;;;;;;;20.37;9.13;;;;;;;3.41;83.70;103238.00;5135816;27;20480;-57
2021/03/01 10:39:54;;;;;;;22.20;8.20;;;;;;;3.52;83.73;103242.66;5151684;27;20574;-52
2021/03/01 10:42:22;;;;;;;18.07;7.87;;;;;;;3.34;84.02;103239.88;5144813;27;20490;-50
2021/03/01 10:44:54;;;;;;;25.30;10.47;;;;;;;3.57;84.52;103236.41;5136017;27;20456;-51
2021/03/01 10:47:22;;;;;;;38.20;16.17;;;;;;;3.89;83.77;103236.47;5137032;27;20461;-48
2021/03/01 10:49:50;;;;;;;17.80;8.10;;;;;;;3.49;83.47;103237.22;5135291;27;20480;-48
2021/03/01 10:52:18;;;;;;;19.00;8.50;;;;;;;4.30;83.04;103236.56;5137150;27;20452;-48
2021/03/01 10:54:49;;;;;;;18.17;8.10;;;;;;;4.59;81.95;103235.31;5135460;27;20450;-48
2021/03/01 10:57:15;;;;;;;20.30;8.17;;;;;;;4.09;80.15;103235.16;5136936;27;20512;-48
2021/03/01 10:59:44;;;;;;;23.73;8.47;;;;;;;4.35;81.63;103233.63;5135441;27;20769;-50
2021/03/01 11:02:11;;;;;;;22.67;7.90;;;;;;;4.66;78.87;103240.31;5135495;27;20451;-49
2021/03/01 11:04:38;;;;;;;18.07;8.13;;;;;;;4.63;78.71;103237.44;5135030;27;20825;-48
2021/03/01 11:07:06;;;;;;;19.57;9.00;;;;;;;4.81;79.30;103238.47;5136958;27;20441;-50
2021/03/01 11:09:33;;;;;;;19.40;8.10;;;;;;;4.73;78.44;103245.31;5110594;27;20985;-49
2021/03/01 11:11:59;;;;;;;19.83;9.40;;;;;;;4.80;79.60;103240.84;5134282;27;20527;-48
2021/03/01 11:14:26;;;;;;;31.20;13.93;;;;;;;5.04;81.09;103241.63;5135750;27;20465;-53
2021/03/01 11:16:53;;;;;;;27.23;10.67;;;;;;;5.06;79.59;103245.25;5136278;27;20576;-48
2021/03/01 11:19:20;;;;;;;20.80;8.70;;;;;;;4.86;77.81;103244.97;5121593;27;20921;-50
2021/03/01 11:21:47;;;;;;;23.30;8.80;;;;;;;4.76;78.96;103241.31;5136471;27;20516;-51
2021/03/01 11:24:15;;;;;;;29.23;12.33;;;;;;;4.70;81.62;103242.47;5120062;27;20446;-50
2021/03/01 11:26:42;;;;;;;23.77;10.47;;;;;;;5.06;80.76;103235.00;5136648;27;20841;-51
2021/03/01 11:29:08;;;;;;;20.83;8.50;;;;;;;4.68;79.37;103228.59;5135137;27;20476;-49
2021/03/01 11:31:35;;;;;;;26.27;9.80;;;;;;;4.64;81.14;103233.22;5136214;27;20435;-50